sensor_id;sensor_type;location;lat;lon;timestamp;P1;durP1;ratioP1;P2;durP2;ratioP2
19828;SDS011;10075;50.924;4.396;2023-04-15T00:02:15;5.93;;;3.83;;
19828;SDS011;10075;50.924;4.396;2023-04-15T00:04:44;4.28;;;3.30;;
19828;SDS011;10075;50.924;4.396;2023-04-15T00:07:12;4.70;;;3.00;;
19828;SDS011;10075;50.924;4.396;2023-04-15T00:09:40;6.30;;;3.10;;
19828;SDS011;10075;50.924;4.396;2023-04-15T00:12:09;5.78;;;3.60;;
19828;SDS011;10075;50.924;4.396;2023-04-15T00:14:36;4.82;;;3.15;;
19828;SDS011;10075;50.924;4.396;2023-04-15T00:17:04;8.10;;;3.53;;
19828;SDS011;10075;50.924;4.396;2023-04-15T00:19:31;6.38;;;3.60;;
19828;SDS011;10075;50.924;4.396;2023-04-15T00:22:00;7.15;;;3.92;;
19828;SDS011;10075;50.924;4.396;2023-04-15T00:24:27;7.72;;;3.67;;
19828;SDS011;10075;50.924;4.396;2023-04-15T00:26:55;6.20;;;3.55;;
19828;SDS011;10075;50.924;4.396;2023-04-15T00:29:22;5.95;;;3.72;;
19828;SDS011;10075;50.924;4.396;2023-04-15T00:31:49;5.28;;;3.65;;
19828;SDS011;10075;50.924;4.396;2023-04-15T00:34:16;5.38;;;3.40;;
19828;SDS011;10075;50.924;4.396;2023-04-15T00:36:43;5.63;;;3.07;;
19828;SDS011;10075;50.924;4.396;2023-04-15T00:39:11;6.38;;;3.25;;
19828;SDS011;10075;50.924;4.396;2023-04-15T00:41:38;5.70;;;3.15;;
19828;SDS011;10075;50.924;4.396;2023-04-15T00:44:05;6.88;;;3.40;;
19828;SDS011;10075;50.924;4.396;2023-04-15T00:46:34;6.40;;;2.90;;
19828;SDS011;10075;50.924;4.396;2023-04-15T00:49:03;4.95;;;3.17;;
19828;SDS011;10075;50.924;4.396;2023-04-15T00:51:31;6.45;;;3.00;;
19828;SDS011;10075;50.924;4.396;2023-04-15T00:54:00;3.85;;;3.08;;
19828;SDS011;10075;50.924;4.396;2023-04-15T00:56:29;4.25;;;3.20;;
19828;SDS011;10075;50.924;4.396;2023-04-15T00:58:57;7.53;;;3.20;;
19828;SDS011;10075;50.924;4.396;2023-04-15T01:01:25;4.50;;;2.80;;
19828;SDS011;10075;50.924;4.396;2023-04-15T01:03:54;5.87;;;3.30;;
19828;SDS011;10075;50.924;4.396;2023-04-15T01:06:22;4.80;;;3.15;;
19828;SDS011;10075;50.924;4.396;2023-04-15T01:08:49;4.72;;;3.20;;
19828;SDS011;10075;50.924;4.396;2023-04-15T01:11:16;5.23;;;3.50;;
19828;SDS011;10075;50.924;4.396;2023-04-15T01:13:45;4.97;;;3.70;;
19828;SDS011;10075;50.924;4.396;2023-04-15T01:16:13;7.47;;;3.83;;
19828;SDS011;10075;50.924;4.396;2023-04-15T01:18:40;4.63;;;3.60;;
19828;SDS011;10075;50.924;4.396;2023-04-15T01:21:07;4.80;;;3.40;;
19828;SDS011;10075;50.924;4.396;2023-04-15T01:23:35;5.50;;;3.53;;
19828;SDS011;10075;50.924;4.396;2023-04-15T01:26:04;7.63;;;3.83;;
19828;SDS011;10075;50.924;4.396;2023-04-15T01:28:32;5.55;;;3.63;;
19828;SDS011;10075;50.924;4.396;2023-04-15T01:31:06;3.70;;;2.90;;
19828;SDS011;10075;50.924;4.396;2023-04-15T01:33:34;5.50;;;3.50;;
19828;SDS011;10075;50.924;4.396;2023-04-15T01:36:02;5.32;;;3.70;;
19828;SDS011;10075;50.924;4.396;2023-04-15T01:38:30;5.90;;;3.57;;
19828;SDS011;10075;50.924;4.396;2023-04-15T01:40:57;5.15;;;3.38;;
19828;SDS011;10075;50.924;4.396;2023-04-15T01:43:26;8.05;;;4.30;;
19828;SDS011;10075;50.924;4.396;2023-04-15T01:45:53;5.27;;;3.90;;
19828;SDS011;10075;50.924;4.396;2023-04-15T01:48:20;7.20;;;4.07;;
19828;SDS011;10075;50.924;4.396;2023-04-15T01:50:48;8.70;;;5.05;;
19828;SDS011;10075;50.924;4.396;2023-04-15T01:53:16;6.65;;;4.57;;
19828;SDS011;10075;50.924;4.396;2023-04-15T01:55:42;9.95;;;5.70;;
19828;SDS011;10075;50.924;4.396;2023-04-15T01:58:09;11.05;;;6.13;;
19828;SDS011;10075;50.924;4.396;2023-04-15T02:00:38;10.90;;;5.60;;
19828;SDS011;10075;50.924;4.396;2023-04-15T02:03:05;14.55;;;6.18;;
19828;SDS011;10075;50.924;4.396;2023-04-15T02:05:32;14.88;;;6.60;;
19828;SDS011;10075;50.924;4.396;2023-04-15T02:07:59;13.02;;;6.28;;
19828;SDS011;10075;50.924;4.396;2023-04-15T02:10:26;11.80;;;6.40;;
19828;SDS011;10075;50.924;4.396;2023-04-15T02:12:53;13.20;;;6.77;;
19828;SDS011;10075;50.924;4.396;2023-04-15T02:15:20;13.52;;;6.82;;
19828;SDS011;10075;50.924;4.396;2023-04-15T02:17:48;13.98;;;7.90;;
19828;SDS011;10075;50.924;4.396;2023-04-15T02:20:18;13.23;;;7.30;;
19828;SDS011;10075;50.924;4.396;2023-04-15T02:22:46;16.03;;;7.17;;
19828;SDS011;10075;50.924;4.396;2023-04-15T02:25:14;14.85;;;7.63;;
19828;SDS011;10075;50.924;4.396;2023-04-15T02:27:42;15.70;;;8.27;;
19828;SDS011;10075;50.924;4.396;2023-04-15T02:30:09;15.37;;;7.87;;
19828;SDS011;10075;50.924;4.396;2023-04-15T02:32:37;16.30;;;8.03;;
19828;SDS011;10075;50.924;4.396;2023-04-15T02:35:06;17.03;;;8.33;;
19828;SDS011;10075;50.924;4.396;2023-04-15T02:37:34;15.53;;;7.87;;
19828;SDS011;10075;50.924;4.396;2023-04-15T02:40:06;17.03;;;7.60;;
19828;SDS011;10075;50.924;4.396;2023-04-15T02:42:35;15.68;;;7.18;;
19828;SDS011;10075;50.924;4.396;2023-04-15T02:45:03;16.37;;;8.07;;
19828;SDS011;10075;50.924;4.396;2023-04-15T02:47:31;12.93;;;7.10;;
19828;SDS011;10075;50.924;4.396;2023-04-15T02:49:58;12.37;;;7.43;;
19828;SDS011;10075;50.924;4.396;2023-04-15T02:52:27;13.70;;;7.43;;
19828;SDS011;10075;50.924;4.396;2023-04-15T02:54:54;14.07;;;7.73;;
19828;SDS011;10075;50.924;4.396;2023-04-15T02:57:24;13.20;;;7.37;;
19828;SDS011;10075;50.924;4.396;2023-04-15T02:59:52;13.40;;;7.45;;
19828;SDS011;10075;50.924;4.396;2023-04-15T03:02:19;13.53;;;7.77;;
19828;SDS011;10075;50.924;4.396;2023-04-15T03:04:46;12.60;;;7.77;;
19828;SDS011;10075;50.924;4.396;2023-04-15T03:07:14;16.85;;;8.45;;
19828;SDS011;10075;50.924;4.396;2023-04-15T03:09:42;13.07;;;7.33;;
19828;SDS011;10075;50.924;4.396;2023-04-15T03:12:09;14.02;;;8.27;;
19828;SDS011;10075;50.924;4.396;2023-04-15T03:14:36;14.07;;;8.07;;
19828;SDS011;10075;50.924;4.396;2023-04-15T03:17:03;11.60;;;7.33;;
19828;SDS011;10075;50.924;4.396;2023-04-15T03:19:30;15.07;;;8.13;;
19828;SDS011;10075;50.924;4.396;2023-04-15T03:21:57;14.98;;;7.13;;
19828;SDS011;10075;50.924;4.396;2023-04-15T03:24:24;11.87;;;7.27;;
19828;SDS011;10075;50.924;4.396;2023-04-15T03:26:55;13.15;;;7.47;;
19828;SDS011;10075;50.924;4.396;2023-04-15T03:29:22;12.93;;;7.40;;
19828;SDS011;10075;50.924;4.396;2023-04-15T03:31:49;15.00;;;8.23;;
19828;SDS011;10075;50.924;4.396;2023-04-15T03:34:17;11.73;;;7.57;;
19828;SDS011;10075;50.924;4.396;2023-04-15T03:36:44;15.07;;;7.95;;
19828;SDS011;10075;50.924;4.396;2023-04-15T03:39:11;11.50;;;7.83;;
19828;SDS011;10075;50.924;4.396;2023-04-15T03:41:38;13.13;;;7.93;;
19828;SDS011;10075;50.924;4.396;2023-04-15T03:44:07;13.52;;;7.93;;
19828;SDS011;10075;50.924;4.396;2023-04-15T03:46:35;14.88;;;8.02;;
19828;SDS011;10075;50.924;4.396;2023-04-15T03:49:02;10.18;;;6.53;;
19828;SDS011;10075;50.924;4.396;2023-04-15T03:51:33;10.88;;;7.80;;
19828;SDS011;10075;50.924;4.396;2023-04-15T03:54:00;10.45;;;6.78;;
19828;SDS011;10075;50.924;4.396;2023-04-15T03:56:27;11.88;;;7.25;;
19828;SDS011;10075;50.924;4.396;2023-04-15T03:58:54;10.75;;;6.82;;
19828;SDS011;10075;50.924;4.396;2023-04-15T04:01:23;10.93;;;7.90;;
19828;SDS011;10075;50.924;4.396;2023-04-15T04:03:50;8.87;;;6.93;;
19828;SDS011;10075;50.924;4.396;2023-04-15T04:06:16;11.97;;;6.80;;
19828;SDS011;10075;50.924;4.396;2023-04-15T04:08:44;11.70;;;7.30;;
19828;SDS011;10075;50.924;4.396;2023-04-15T04:11:11;10.10;;;6.83;;
19828;SDS011;10075;50.924;4.396;2023-04-15T04:13:38;11.75;;;7.18;;
19828;SDS011;10075;50.924;4.396;2023-04-15T04:16:05;16.55;;;6.65;;
19828;SDS011;10075;50.924;4.396;2023-04-15T04:18:34;13.70;;;6.77;;
19828;SDS011;10075;50.924;4.396;2023-04-15T04:21:01;13.43;;;6.53;;
19828;SDS011;10075;50.924;4.396;2023-04-15T04:23:28;10.57;;;7.70;;
19828;SDS011;10075;50.924;4.396;2023-04-15T04:25:55;10.32;;;6.93;;
19828;SDS011;10075;50.924;4.396;2023-04-15T04:28:22;11.50;;;6.97;;
19828;SDS011;10075;50.924;4.396;2023-04-15T04:30:49;12.97;;;7.80;;
19828;SDS011;10075;50.924;4.396;2023-04-15T04:33:16;12.07;;;6.73;;
19828;SDS011;10075;50.924;4.396;2023-04-15T04:35:44;11.70;;;7.43;;
19828;SDS011;10075;50.924;4.396;2023-04-15T04:38:11;14.20;;;7.23;;
19828;SDS011;10075;50.924;4.396;2023-04-15T04:40:38;9.70;;;7.10;;
19828;SDS011;10075;50.924;4.396;2023-04-15T04:43:05;18.85;;;7.53;;
19828;SDS011;10075;50.924;4.396;2023-04-15T04:45:33;11.50;;;7.60;;
19828;SDS011;10075;50.924;4.396;2023-04-15T04:48:00;10.07;;;7.30;;
19828;SDS011;10075;50.924;4.396;2023-04-15T04:50:30;10.70;;;7.95;;
19828;SDS011;10075;50.924;4.396;2023-04-15T04:52:59;9.30;;;7.30;;
19828;SDS011;10075;50.924;4.396;2023-04-15T04:55:26;13.05;;;7.72;;
19828;SDS011;10075;50.924;4.396;2023-04-15T04:57:53;9.57;;;7.55;;
19828;SDS011;10075;50.924;4.396;2023-04-15T05:00:20;13.00;;;8.52;;
19828;SDS011;10075;50.924;4.396;2023-04-15T05:02:48;14.45;;;7.68;;
19828;SDS011;10075;50.924;4.396;2023-04-15T05:05:15;12.40;;;7.38;;
19828;SDS011;10075;50.924;4.396;2023-04-15T05:07:42;11.82;;;6.85;;
19828;SDS011;10075;50.924;4.396;2023-04-15T05:10:10;12.23;;;7.13;;
19828;SDS011;10075;50.924;4.396;2023-04-15T05:12:39;12.93;;;7.70;;
19828;SDS011;10075;50.924;4.396;2023-04-15T05:15:06;11.53;;;6.87;;
19828;SDS011;10075;50.924;4.396;2023-04-15T05:17:34;13.10;;;7.30;;
19828;SDS011;10075;50.924;4.396;2023-04-15T05:20:01;11.07;;;7.35;;
19828;SDS011;10075;50.924;4.396;2023-04-15T05:22:28;12.67;;;7.50;;
19828;SDS011;10075;50.924;4.396;2023-04-15T05:24:55;9.67;;;6.97;;
19828;SDS011;10075;50.924;4.396;2023-04-15T05:27:24;12.63;;;7.88;;
19828;SDS011;10075;50.924;4.396;2023-04-15T05:29:50;11.60;;;7.03;;
19828;SDS011;10075;50.924;4.396;2023-04-15T05:32:17;11.93;;;7.27;;
19828;SDS011;10075;50.924;4.396;2023-04-15T05:34:44;13.43;;;7.97;;
19828;SDS011;10075;50.924;4.396;2023-04-15T05:37:11;13.57;;;7.27;;
19828;SDS011;10075;50.924;4.396;2023-04-15T05:39:38;13.30;;;7.53;;
19828;SDS011;10075;50.924;4.396;2023-04-15T05:42:16;13.57;;;7.37;;
19828;SDS011;10075;50.924;4.396;2023-04-15T05:44:57;9.52;;;6.65;;
19828;SDS011;10075;50.924;4.396;2023-04-15T05:47:24;15.35;;;7.50;;
19828;SDS011;10075;50.924;4.396;2023-04-15T05:49:51;12.13;;;7.68;;
19828;SDS011;10075;50.924;4.396;2023-04-15T05:52:19;10.00;;;6.32;;
19828;SDS011;10075;50.924;4.396;2023-04-15T05:54:46;12.30;;;8.00;;
19828;SDS011;10075;50.924;4.396;2023-04-15T05:57:13;11.43;;;7.27;;
19828;SDS011;10075;50.924;4.396;2023-04-15T05:59:40;12.50;;;6.53;;
19828;SDS011;10075;50.924;4.396;2023-04-15T06:02:09;12.70;;;6.77;;
19828;SDS011;10075;50.924;4.396;2023-04-15T06:04:36;8.70;;;5.68;;
19828;SDS011;10075;50.924;4.396;2023-04-15T06:07:03;9.27;;;7.05;;
19828;SDS011;10075;50.924;4.396;2023-04-15T06:09:30;13.17;;;7.23;;
19828;SDS011;10075;50.924;4.396;2023-04-15T06:11:57;11.63;;;6.60;;
19828;SDS011;10075;50.924;4.396;2023-04-15T06:14:25;10.40;;;6.33;;
19828;SDS011;10075;50.924;4.396;2023-04-15T06:16:52;16.85;;;6.85;;
19828;SDS011;10075;50.924;4.396;2023-04-15T06:19:21;13.80;;;7.13;;
19828;SDS011;10075;50.924;4.396;2023-04-15T06:21:48;11.77;;;6.43;;
19828;SDS011;10075;50.924;4.396;2023-04-15T06:24:15;14.50;;;7.10;;
19828;SDS011;10075;50.924;4.396;2023-04-15T06:26:42;13.40;;;6.45;;
19828;SDS011;10075;50.924;4.396;2023-04-15T06:29:09;13.27;;;6.00;;
19828;SDS011;10075;50.924;4.396;2023-04-15T06:31:36;14.20;;;6.83;;
19828;SDS011;10075;50.924;4.396;2023-04-15T06:34:03;11.55;;;6.35;;
19828;SDS011;10075;50.924;4.396;2023-04-15T06:36:31;21.57;;;10.73;;
19828;SDS011;10075;50.924;4.396;2023-04-15T06:38:58;21.67;;;10.18;;
19828;SDS011;10075;50.924;4.396;2023-04-15T06:41:26;18.93;;;10.27;;
19828;SDS011;10075;50.924;4.396;2023-04-15T06:43:53;15.35;;;8.88;;
19828;SDS011;10075;50.924;4.396;2023-04-15T06:46:20;10.80;;;6.93;;
19828;SDS011;10075;50.924;4.396;2023-04-15T06:48:48;14.63;;;6.53;;
19828;SDS011;10075;50.924;4.396;2023-04-15T06:51:15;15.07;;;6.20;;
19828;SDS011;10075;50.924;4.396;2023-04-15T06:53:45;12.52;;;6.30;;
19828;SDS011;10075;50.924;4.396;2023-04-15T06:56:12;9.82;;;5.60;;
19828;SDS011;10075;50.924;4.396;2023-04-15T06:58:39;13.35;;;6.57;;
19828;SDS011;10075;50.924;4.396;2023-04-15T07:01:06;10.55;;;6.95;;
19828;SDS011;10075;50.924;4.396;2023-04-15T07:03:33;13.00;;;6.82;;
19828;SDS011;10075;50.924;4.396;2023-04-15T07:06:00;15.25;;;6.93;;
19828;SDS011;10075;50.924;4.396;2023-04-15T07:08:30;11.52;;;7.05;;
19828;SDS011;10075;50.924;4.396;2023-04-15T07:10:59;9.68;;;6.70;;
19828;SDS011;10075;50.924;4.396;2023-04-15T07:13:26;10.60;;;7.03;;
19828;SDS011;10075;50.924;4.396;2023-04-15T07:15:53;12.63;;;7.80;;
19828;SDS011;10075;50.924;4.396;2023-04-15T07:18:20;16.13;;;8.73;;
19828;SDS011;10075;50.924;4.396;2023-04-15T07:20:47;10.77;;;7.05;;
19828;SDS011;10075;50.924;4.396;2023-04-15T07:23:14;15.20;;;9.45;;
19828;SDS011;10075;50.924;4.396;2023-04-15T07:25:42;13.90;;;7.65;;
19828;SDS011;10075;50.924;4.396;2023-04-15T07:28:11;16.83;;;10.02;;
19828;SDS011;10075;50.924;4.396;2023-04-15T07:30:38;12.60;;;7.90;;
19828;SDS011;10075;50.924;4.396;2023-04-15T07:33:05;14.00;;;8.27;;
19828;SDS011;10075;50.924;4.396;2023-04-15T07:35:32;14.77;;;8.15;;
19828;SDS011;10075;50.924;4.396;2023-04-15T07:37:59;14.48;;;8.07;;
19828;SDS011;10075;50.924;4.396;2023-04-15T07:40:26;14.07;;;8.25;;
19828;SDS011;10075;50.924;4.396;2023-04-15T07:42:54;14.45;;;8.48;;
19828;SDS011;10075;50.924;4.396;2023-04-15T07:45:23;15.65;;;9.95;;
19828;SDS011;10075;50.924;4.396;2023-04-15T07:47:51;14.32;;;9.00;;
19828;SDS011;10075;50.924;4.396;2023-04-15T07:50:20;16.73;;;9.43;;
19828;SDS011;10075;50.924;4.396;2023-04-15T07:52:47;14.20;;;9.80;;
19828;SDS011;10075;50.924;4.396;2023-04-15T07:55:15;14.77;;;10.50;;
19828;SDS011;10075;50.924;4.396;2023-04-15T07:57:44;16.40;;;10.45;;
19828;SDS011;10075;50.924;4.396;2023-04-15T08:00:11;18.67;;;10.32;;
19828;SDS011;10075;50.924;4.396;2023-04-15T08:02:42;17.07;;;11.07;;
19828;SDS011;10075;50.924;4.396;2023-04-15T08:05:10;21.85;;;10.43;;
19828;SDS011;10075;50.924;4.396;2023-04-15T08:07:39;16.23;;;11.70;;
19828;SDS011;10075;50.924;4.396;2023-04-15T08:10:06;17.95;;;11.38;;
19828;SDS011;10075;50.924;4.396;2023-04-15T08:12:34;18.27;;;10.82;;
19828;SDS011;10075;50.924;4.396;2023-04-15T08:15:01;19.00;;;10.93;;
19828;SDS011;10075;50.924;4.396;2023-04-15T08:17:28;20.42;;;11.32;;
19828;SDS011;10075;50.924;4.396;2023-04-15T08:19:56;13.77;;;10.73;;
19828;SDS011;10075;50.924;4.396;2023-04-15T08:22:23;23.73;;;11.18;;
19828;SDS011;10075;50.924;4.396;2023-04-15T08:24:51;16.98;;;10.77;;
19828;SDS011;10075;50.924;4.396;2023-04-15T08:27:18;16.90;;;10.73;;
19828;SDS011;10075;50.924;4.396;2023-04-15T08:29:45;21.30;;;11.38;;
19828;SDS011;10075;50.924;4.396;2023-04-15T08:32:12;15.13;;;10.95;;
19828;SDS011;10075;50.924;4.396;2023-04-15T08:34:39;21.15;;;11.43;;
19828;SDS011;10075;50.924;4.396;2023-04-15T08:37:08;16.60;;;10.20;;
19828;SDS011;10075;50.924;4.396;2023-04-15T08:39:34;19.27;;;11.23;;
19828;SDS011;10075;50.924;4.396;2023-04-15T08:42:02;15.70;;;10.40;;
19828;SDS011;10075;50.924;4.396;2023-04-15T08:44:33;16.50;;;11.15;;
19828;SDS011;10075;50.924;4.396;2023-04-15T08:47:00;12.93;;;9.63;;
19828;SDS011;10075;50.924;4.396;2023-04-15T08:49:28;14.15;;;10.30;;
19828;SDS011;10075;50.924;4.396;2023-04-15T08:51:56;14.57;;;10.00;;
19828;SDS011;10075;50.924;4.396;2023-04-15T08:54:26;12.70;;;10.35;;
19828;SDS011;10075;50.924;4.396;2023-04-15T08:56:54;15.13;;;10.43;;
19828;SDS011;10075;50.924;4.396;2023-04-15T08:59:23;14.02;;;8.85;;
19828;SDS011;10075;50.924;4.396;2023-04-15T09:01:50;14.20;;;8.45;;
19828;SDS011;10075;50.924;4.396;2023-04-15T09:04:17;13.07;;;8.20;;
19828;SDS011;10075;50.924;4.396;2023-04-15T09:06:45;15.23;;;7.55;;
19828;SDS011;10075;50.924;4.396;2023-04-15T09:09:12;11.93;;;6.90;;
19828;SDS011;10075;50.924;4.396;2023-04-15T09:11:41;10.52;;;6.05;;
19828;SDS011;10075;50.924;4.396;2023-04-15T09:14:08;10.05;;;5.90;;
19828;SDS011;10075;50.924;4.396;2023-04-15T09:19:23;9.20;;;5.90;;
19828;SDS011;10075;50.924;4.396;2023-04-15T09:21:52;12.00;;;6.28;;
19828;SDS011;10075;50.924;4.396;2023-04-15T09:24:20;10.82;;;6.43;;
19828;SDS011;10075;50.924;4.396;2023-04-15T09:26:50;8.75;;;5.65;;
19828;SDS011;10075;50.924;4.396;2023-04-15T09:29:19;9.43;;;5.65;;
19828;SDS011;10075;50.924;4.396;2023-04-15T09:31:49;7.95;;;5.47;;
19828;SDS011;10075;50.924;4.396;2023-04-15T09:34:16;9.00;;;5.35;;
19828;SDS011;10075;50.924;4.396;2023-04-15T09:36:53;6.70;;;5.38;;
19828;SDS011;10075;50.924;4.396;2023-04-15T09:39:22;11.27;;;5.28;;
19828;SDS011;10075;50.924;4.396;2023-04-15T09:42:06;7.55;;;5.07;;
19828;SDS011;10075;50.924;4.396;2023-04-15T09:44:33;8.52;;;5.03;;
19828;SDS011;10075;50.924;4.396;2023-04-15T09:47:00;8.23;;;4.90;;
19828;SDS011;10075;50.924;4.396;2023-04-15T09:49:27;12.57;;;6.40;;
19828;SDS011;10075;50.924;4.396;2023-04-15T09:51:57;9.63;;;5.65;;
19828;SDS011;10075;50.924;4.396;2023-04-15T09:54:31;13.82;;;6.75;;
19828;SDS011;10075;50.924;4.396;2023-04-15T09:57:07;10.57;;;6.10;;
19828;SDS011;10075;50.924;4.396;2023-04-15T09:59:36;9.82;;;6.53;;
19828;SDS011;10075;50.924;4.396;2023-04-15T10:02:03;8.98;;;7.00;;
19828;SDS011;10075;50.924;4.396;2023-04-15T10:04:32;16.10;;;6.03;;
19828;SDS011;10075;50.924;4.396;2023-04-15T10:07:04;11.43;;;6.60;;
19828;SDS011;10075;50.924;4.396;2023-04-15T10:09:33;9.27;;;6.05;;
19828;SDS011;10075;50.924;4.396;2023-04-15T10:12:01;12.88;;;6.35;;
19828;SDS011;10075;50.924;4.396;2023-04-15T10:14:31;7.60;;;5.22;;
19828;SDS011;10075;50.924;4.396;2023-04-15T10:17:02;8.88;;;5.22;;
19828;SDS011;10075;50.924;4.396;2023-04-15T10:19:31;6.85;;;4.55;;
19828;SDS011;10075;50.924;4.396;2023-04-15T10:21:59;8.73;;;4.25;;
19828;SDS011;10075;50.924;4.396;2023-04-15T10:24:26;7.40;;;4.40;;
19828;SDS011;10075;50.924;4.396;2023-04-15T10:26:54;5.32;;;3.88;;
19828;SDS011;10075;50.924;4.396;2023-04-15T10:29:22;6.95;;;4.05;;
19828;SDS011;10075;50.924;4.396;2023-04-15T10:31:52;6.82;;;4.00;;
19828;SDS011;10075;50.924;4.396;2023-04-15T10:34:20;7.60;;;3.83;;
19828;SDS011;10075;50.924;4.396;2023-04-15T10:36:49;13.40;;;3.72;;
19828;SDS011;10075;50.924;4.396;2023-04-15T10:42:09;7.22;;;3.15;;
19828;SDS011;10075;50.924;4.396;2023-04-15T10:44:37;6.28;;;3.17;;
19828;SDS011;10075;50.924;4.396;2023-04-15T10:47:13;5.45;;;2.50;;
19828;SDS011;10075;50.924;4.396;2023-04-15T10:49:43;5.85;;;3.05;;
19828;SDS011;10075;50.924;4.396;2023-04-15T10:52:11;3.63;;;2.85;;
19828;SDS011;10075;50.924;4.396;2023-04-15T10:54:39;6.25;;;3.10;;
19828;SDS011;10075;50.924;4.396;2023-04-15T10:57:07;7.07;;;3.47;;
19828;SDS011;10075;50.924;4.396;2023-04-15T11:02:42;6.25;;;3.72;;
19828;SDS011;10075;50.924;4.396;2023-04-15T11:05:11;6.53;;;3.08;;
19828;SDS011;10075;50.924;4.396;2023-04-15T11:07:40;4.90;;;3.05;;
19828;SDS011;10075;50.924;4.396;2023-04-15T11:13:24;9.27;;;4.13;;
19828;SDS011;10075;50.924;4.396;2023-04-15T11:15:56;6.35;;;3.60;;
19828;SDS011;10075;50.924;4.396;2023-04-15T11:18:27;4.35;;;2.83;;
19828;SDS011;10075;50.924;4.396;2023-04-15T11:20:59;9.48;;;3.80;;
19828;SDS011;10075;50.924;4.396;2023-04-15T11:23:29;4.43;;;3.10;;
19828;SDS011;10075;50.924;4.396;2023-04-15T11:25:58;4.70;;;2.63;;
19828;SDS011;10075;50.924;4.396;2023-04-15T11:28:26;4.85;;;1.80;;
19828;SDS011;10075;50.924;4.396;2023-04-15T11:30:55;7.13;;;2.00;;
19828;SDS011;10075;50.924;4.396;2023-04-15T11:33:22;3.45;;;2.50;;
19828;SDS011;10075;50.924;4.396;2023-04-15T11:35:52;2.95;;;2.45;;
19828;SDS011;10075;50.924;4.396;2023-04-15T11:38:20;5.95;;;3.10;;
19828;SDS011;10075;50.924;4.396;2023-04-15T11:40:47;3.20;;;2.63;;
19828;SDS011;10075;50.924;4.396;2023-04-15T11:43:16;4.65;;;2.80;;
19828;SDS011;10075;50.924;4.396;2023-04-15T11:45:48;2.42;;;1.73;;
19828;SDS011;10075;50.924;4.396;2023-04-15T11:48:17;3.00;;;2.20;;
19828;SDS011;10075;50.924;4.396;2023-04-15T11:50:45;5.53;;;2.60;;
19828;SDS011;10075;50.924;4.396;2023-04-15T11:53:13;2.72;;;2.00;;
19828;SDS011;10075;50.924;4.396;2023-04-15T11:55:40;4.38;;;2.30;;
19828;SDS011;10075;50.924;4.396;2023-04-15T11:58:11;3.72;;;2.50;;
19828;SDS011;10075;50.924;4.396;2023-04-15T12:00:40;5.68;;;2.55;;
19828;SDS011;10075;50.924;4.396;2023-04-15T12:03:21;5.20;;;2.17;;
19828;SDS011;10075;50.924;4.396;2023-04-15T12:06:05;5.72;;;2.63;;
19828;SDS011;10075;50.924;4.396;2023-04-15T12:08:58;5.22;;;2.88;;
19828;SDS011;10075;50.924;4.396;2023-04-15T12:11:28;5.63;;;3.50;;
19828;SDS011;10075;50.924;4.396;2023-04-15T12:13:58;4.85;;;2.65;;
19828;SDS011;10075;50.924;4.396;2023-04-15T12:16:32;4.30;;;2.60;;
19828;SDS011;10075;50.924;4.396;2023-04-15T12:19:02;4.22;;;2.53;;
19828;SDS011;10075;50.924;4.396;2023-04-15T12:21:35;3.90;;;1.83;;
19828;SDS011;10075;50.924;4.396;2023-04-15T12:24:05;2.67;;;2.08;;
19828;SDS011;10075;50.924;4.396;2023-04-15T12:26:35;3.17;;;1.95;;
19828;SDS011;10075;50.924;4.396;2023-04-15T12:29:04;2.72;;;1.27;;
19828;SDS011;10075;50.924;4.396;2023-04-15T12:31:33;3.92;;;2.67;;
19828;SDS011;10075;50.924;4.396;2023-04-15T12:34:00;3.03;;;2.05;;
19828;SDS011;10075;50.924;4.396;2023-04-15T12:36:29;3.65;;;2.35;;
19828;SDS011;10075;50.924;4.396;2023-04-15T12:39:00;2.25;;;1.75;;
19828;SDS011;10075;50.924;4.396;2023-04-15T12:41:30;4.60;;;1.88;;
19828;SDS011;10075;50.924;4.396;2023-04-15T12:43:57;3.10;;;1.42;;
19828;SDS011;10075;50.924;4.396;2023-04-15T12:46:25;2.42;;;1.83;;
19828;SDS011;10075;50.924;4.396;2023-04-15T12:48:52;6.97;;;2.75;;
19828;SDS011;10075;50.924;4.396;2023-04-15T12:51:19;4.18;;;2.58;;
19828;SDS011;10075;50.924;4.396;2023-04-15T12:53:46;4.95;;;2.33;;
19828;SDS011;10075;50.924;4.396;2023-04-15T12:56:13;2.22;;;1.80;;
19828;SDS011;10075;50.924;4.396;2023-04-15T12:58:42;3.13;;;1.90;;
19828;SDS011;10075;50.924;4.396;2023-04-15T13:01:10;3.42;;;1.58;;
19828;SDS011;10075;50.924;4.396;2023-04-15T13:03:37;5.75;;;2.80;;
19828;SDS011;10075;50.924;4.396;2023-04-15T13:06:04;3.42;;;2.63;;
19828;SDS011;10075;50.924;4.396;2023-04-15T13:08:31;5.82;;;2.60;;
19828;SDS011;10075;50.924;4.396;2023-04-15T13:10:58;6.45;;;2.75;;
19828;SDS011;10075;50.924;4.396;2023-04-15T13:13:25;5.88;;;2.70;;
19828;SDS011;10075;50.924;4.396;2023-04-15T13:15:54;6.13;;;3.00;;
19828;SDS011;10075;50.924;4.396;2023-04-15T13:18:21;5.30;;;3.22;;
19828;SDS011;10075;50.924;4.396;2023-04-15T13:20:49;6.50;;;2.83;;
19828;SDS011;10075;50.924;4.396;2023-04-15T13:23:16;5.68;;;1.95;;
19828;SDS011;10075;50.924;4.396;2023-04-15T13:25:43;3.05;;;2.08;;
19828;SDS011;10075;50.924;4.396;2023-04-15T13:28:10;5.10;;;2.25;;
19828;SDS011;10075;50.924;4.396;2023-04-15T13:30:38;5.07;;;2.55;;
19828;SDS011;10075;50.924;4.396;2023-04-15T13:33:06;4.90;;;2.53;;
19828;SDS011;10075;50.924;4.396;2023-04-15T13:35:33;3.83;;;2.10;;
19828;SDS011;10075;50.924;4.396;2023-04-15T13:38:00;4.97;;;2.22;;
19828;SDS011;10075;50.924;4.396;2023-04-15T13:40:27;2.50;;;1.90;;
19828;SDS011;10075;50.924;4.396;2023-04-15T13:42:54;3.55;;;1.90;;
19828;SDS011;10075;50.924;4.396;2023-04-15T13:45:21;6.10;;;1.95;;
19828;SDS011;10075;50.924;4.396;2023-04-15T13:47:48;4.72;;;1.88;;
19828;SDS011;10075;50.924;4.396;2023-04-15T13:50:17;3.55;;;1.88;;
19828;SDS011;10075;50.924;4.396;2023-04-15T13:52:44;3.55;;;1.45;;
19828;SDS011;10075;50.924;4.396;2023-04-15T13:55:11;3.05;;;2.10;;
19828;SDS011;10075;50.924;4.396;2023-04-15T13:57:38;4.10;;;1.75;;
19828;SDS011;10075;50.924;4.396;2023-04-15T14:00:05;5.50;;;2.45;;
19828;SDS011;10075;50.924;4.396;2023-04-15T14:02:33;4.45;;;1.85;;
19828;SDS011;10075;50.924;4.396;2023-04-15T14:05:00;4.15;;;2.20;;
19828;SDS011;10075;50.924;4.396;2023-04-15T14:07:29;6.00;;;2.30;;
19828;SDS011;10075;50.924;4.396;2023-04-15T14:09:56;7.05;;;2.63;;
19828;SDS011;10075;50.924;4.396;2023-04-15T14:12:23;4.88;;;2.40;;
19828;SDS011;10075;50.924;4.396;2023-04-15T14:14:50;3.17;;;1.35;;
19828;SDS011;10075;50.924;4.396;2023-04-15T14:17:17;2.75;;;1.30;;
19828;SDS011;10075;50.924;4.396;2023-04-15T14:19:45;3.47;;;1.13;;
19828;SDS011;10075;50.924;4.396;2023-04-15T14:22:12;3.38;;;1.00;;
19828;SDS011;10075;50.924;4.396;2023-04-15T14:24:40;2.33;;;1.08;;
19828;SDS011;10075;50.924;4.396;2023-04-15T14:27:07;1.00;;;0.90;;
19828;SDS011;10075;50.924;4.396;2023-04-15T14:29:36;6.25;;;1.35;;
19828;SDS011;10075;50.924;4.396;2023-04-15T14:32:03;3.22;;;0.90;;
19828;SDS011;10075;50.924;4.396;2023-04-15T14:34:31;2.15;;;1.00;;
19828;SDS011;10075;50.924;4.396;2023-04-15T14:36:58;2.20;;;1.00;;
19828;SDS011;10075;50.924;4.396;2023-04-15T14:39:25;2.55;;;1.10;;
19828;SDS011;10075;50.924;4.396;2023-04-15T14:41:53;2.92;;;1.00;;
19828;SDS011;10075;50.924;4.396;2023-04-15T14:44:20;2.28;;;1.08;;
19828;SDS011;10075;50.924;4.396;2023-04-15T14:46:48;3.85;;;1.38;;
19828;SDS011;10075;50.924;4.396;2023-04-15T14:49:16;3.55;;;1.27;;
19828;SDS011;10075;50.924;4.396;2023-04-15T14:51:43;2.50;;;1.60;;
19828;SDS011;10075;50.924;4.396;2023-04-15T14:54:10;2.72;;;1.10;;
19828;SDS011;10075;50.924;4.396;2023-04-15T14:56:37;3.10;;;1.67;;
19828;SDS011;10075;50.924;4.396;2023-04-15T14:59:06;3.58;;;1.90;;